Time;durP1;ratioP1;P1;durP2;ratioP2;P2;SDS_P1;SDS_P2;PMS_P1;PMS_P2;Temp;Humidity;BMP_temperature;BMP_pressure;BME280_temperature;BME280_humidity;BME280_pressure;Samples;Min_cycle;Max_cycle;Signal;HPM_P1;HPM_P2
2023/08/01 00:02:18;;;;;;;8.15;5.30;;;15.80;99.90;;;;;;5093303;28;20046;-85
2023/08/01 00:04:45;;;;;;;6.82;4.78;;;15.80;99.90;;;;;;5108805;28;20108;-85
2023/08/01 00:07:13;;;;;;;6.55;4.68;;;16.00;99.90;;;;;;5109529;28;20044;-86
2023/08/01 00:09:42;;;;;;;7.53;5.25;;;16.10;99.90;;;;;;5092907;28;20051;-85
2023/08/01 00:12:10;;;;;;;9.70;4.82;;;16.10;99.90;;;;;;5111176;28;20054;-85
2023/08/01 00:14:38;;;;;;;6.95;4.93;;;16.00;99.90;;;;;;5119231;28;20047;-85
2023/08/01 00:17:06;;;;;;;8.00;4.85;;;16.00;99.90;;;;;;5116561;28;20063;-86
2023/08/01 00:19:33;;;;;;;6.30;4.97;;;16.00;99.90;;;;;;5109806;28;20110;-86
2023/08/01 00:22:01;;;;;;;7.68;4.47;;;15.90;99.90;;;;;;5110725;28;20050;-87
2023/08/01 00:24:29;;;;;;;7.32;4.60;;;15.90;99.90;;;;;;5111236;28;20135;-84
2023/08/01 00:26:57;;;;;;;9.70;4.97;;;15.90;99.90;;;;;;5091243;28;20082;-86
2023/08/01 00:29:25;;;;;;;8.98;4.40;;;15.90;99.90;;;;;;5091349;28;20094;-85
2023/08/01 00:31:53;;;;;;;7.05;4.43;;;15.90;99.90;;;;;;5109843;28;20044;-86
2023/08/01 00:34:20;;;;;;;6.22;4.32;;;16.00;99.90;;;;;;5109305;28;20048;-87
2023/08/01 00:36:49;;;;;;;6.45;4.60;;;15.90;99.90;;;;;;5107240;28;20044;-87
2023/08/01 00:39:16;;;;;;;7.25;4.45;;;15.80;99.90;;;;;;5110880;28;20036;-86
2023/08/01 00:41:44;;;;;;;8.13;4.60;;;15.80;99.90;;;;;;5091908;28;20080;-85
2023/08/01 00:44:12;;;;;;;9.45;4.68;;;15.80;99.90;;;;;;5084568;28;20047;-86
2023/08/01 00:46:40;;;;;;;9.35;6.15;;;15.80;99.90;;;;;;5109329;28;20044;-85
2023/08/01 00:49:08;;;;;;;8.43;5.85;;;15.70;99.90;;;;;;5109309;28;20039;-86
2023/08/01 00:51:36;;;;;;;15.90;9.32;;;15.70;99.90;;;;;;5091924;28;20047;-85
2023/08/01 00:54:04;;;;;;;18.30;12.38;;;15.60;99.90;;;;;;5109405;28;20070;-85
2023/08/01 00:56:32;;;;;;;7.90;5.15;;;15.60;99.90;;;;;;5109868;28;20079;-85
2023/08/01 00:58:59;;;;;;;7.60;5.15;;;15.60;99.90;;;;;;5089489;28;20135;-86
2023/08/01 01:01:28;;;;;;;15.40;11.07;;;15.60;99.90;;;;;;5083519;28;20129;-86
2023/08/01 01:03:55;;;;;;;14.20;9.85;;;15.70;99.90;;;;;;5109318;28;20040;-85
2023/08/01 01:06:29;;;;;;;7.65;5.60;;;15.60;99.90;;;;;;5110078;28;20043;-85
2023/08/01 01:08:56;;;;;;;7.07;5.13;;;15.50;99.90;;;;;;5110996;28;20134;-86
2023/08/01 01:11:24;;;;;;;6.97;4.47;;;15.40;99.90;;;;;;5083960;28;20464;-86
2023/08/01 01:13:52;;;;;;;7.45;4.75;;;15.40;99.90;;;;;;5113044;28;20108;-86
2023/08/01 01:16:20;;;;;;;8.73;5.00;;;15.30;99.90;;;;;;5113040;28;20040;-86
2023/08/01 08:44:05;;;;;;;4.03;2.83;;;28.30;99.90;;;;;;5381422;22;20044;-83
2023/08/01 08:46:38;;;;;;;4.57;3.00;;;28.30;99.90;;;;;;5114421;27;20043;-82
2023/08/01 08:49:06;;;;;;;5.78;3.47;;;28.50;99.90;;;;;;5126308;27;20956;-84
2023/08/01 08:51:37;;;;;;;4.53;3.33;;;28.70;99.90;;;;;;5092962;28;20040;-84
2023/08/01 08:54:06;;;;;;;8.70;3.88;;;29.00;99.90;;;;;;5105764;28;20046;-83
2023/08/01 08:56:35;;;;;;;4.57;3.17;;;29.10;99.90;;;;;;5103698;28;20035;-83
2023/08/01 08:59:40;;;;;;;5.90;2.97;;;29.10;99.90;;;;;;5119629;22;20572;-78
2023/08/01 09:02:08;;;;;;;4.30;3.08;;;29.00;99.90;;;;;;5085580;28;20036;-77
2023/08/01 09:04:35;;;;;;;7.05;4.45;;;29.10;99.90;;;;;;5102152;28;20070;-75
2023/08/01 09:07:08;;;;;;;8.38;5.75;;;29.20;99.90;;;;;;5105037;28;20047;-77
2023/08/01 09:09:38;;;;;;;5.22;3.15;;;29.30;99.90;;;;;;5100602;28;20038;-84
2023/08/01 09:12:08;;;;;;;5.55;3.60;;;29.30;99.90;;;;;;5100545;28;20046;-77
2023/08/01 09:14:38;;;;;;;6.32;5.00;;;28.90;99.90;;;;;;5095717;28;20035;-77
2023/08/01 09:17:09;;;;;;;4.53;3.47;;;29.10;99.90;;;;;;5115127;28;20453;-80
2023/08/01 09:19:37;;;;;;;4.65;3.45;;;29.20;99.90;;;;;;5094868;28;20044;-78
2023/08/01 09:22:12;;;;;;;4.60;3.13;;;29.10;99.90;;;;;;5091681;28;20134;-81
2023/08/01 09:24:39;;;;;;;4.57;2.85;;;29.00;99.90;;;;;;5104977;28;20096;-77
2023/08/01 09:27:08;;;;;;;4.95;4.07;;;28.80;99.90;;;;;;5102788;28;20050;-77
2023/08/01 09:29:37;;;;;;;8.23;3.80;;;29.00;99.90;;;;;;5105049;28;20250;-77
2023/08/01 09:32:14;;;;;;;6.53;3.33;;;29.20;99.90;;;;;;5109025;28;20499;-77
2023/08/01 09:34:42;;;;;;;6.95;4.63;;;29.40;99.90;;;;;;5105834;28;20074;-75
2023/08/01 09:37:09;;;;;;;4.28;3.03;;;29.60;99.90;;;;;;5106132;28;20048;-77
2023/08/01 09:39:38;;;;;;;5.18;3.17;;;29.60;99.90;;;;;;5118326;28;20055;-77
2023/08/01 09:42:06;;;;;;;6.18;5.18;;;29.70;99.90;;;;;;5090790;28;20055;-78
2023/08/01 09:44:38;;;;;;;3.92;3.30;;;29.80;99.90;;;;;;5108294;28;20051;-76
2023/08/01 09:47:19;;;;;;;6.60;4.93;;;29.60;99.90;;;;;;5109135;28;20048;-78
2023/08/01 09:49:52;;;;;;;5.20;3.88;;;29.90;99.90;;;;;;5095694;28;20040;-76
2023/08/01 09:52:28;;;;;;;5.43;3.63;;;30.00;99.90;;;;;;5105913;28;20171;-77
2023/08/01 09:54:56;;;;;;;7.03;4.32;;;30.10;99.90;;;;;;5105810;28;20040;-76
2023/08/01 09:57:26;;;;;;;5.18;3.00;;;30.20;99.90;;;;;;5104480;28;20082;-77
2023/08/01 09:59:56;;;;;;;4.95;2.80;;;30.20;99.90;;;;;;5107906;28;20044;-75
2023/08/01 10:02:26;;;;;;;3.70;3.10;;;30.00;99.90;;;;;;5110443;28;20052;-76
2023/08/01 10:04:55;;;;;;;4.85;3.13;;;29.90;99.90;;;;;;5104156;28;20513;-76
2023/08/01 10:07:27;;;;;;;3.85;2.78;;;29.90;99.90;;;;;;5101654;28;20054;-76
2023/08/01 10:09:56;;;;;;;5.07;3.22;;;29.80;99.90;;;;;;5102894;28;20152;-76
2023/08/01 10:12:26;;;;;;;4.78;3.00;;;30.00;99.90;;;;;;5104908;28;20031;-77
2023/08/01 10:14:56;;;;;;;4.75;3.38;;;29.90;99.90;;;;;;5101836;28;20044;-76
2023/08/01 10:17:25;;;;;;;5.07;2.67;;;29.90;99.90;;;;;;5104702;28;20399;-75
2023/08/01 10:19:53;;;;;;;12.43;7.22;;;29.90;99.90;;;;;;5109594;28;20065;-78
2023/08/01 10:22:25;;;;;;;5.18;3.40;;;30.10;99.90;;;;;;5130274;28;20449;-79
2023/08/01 10:24:54;;;;;;;10.10;6.20;;;30.30;99.90;;;;;;5102632;28;20039;-77
2023/08/01 10:27:22;;;;;;;9.63;3.97;;;30.50;99.90;;;;;;5102553;28;20398;-77
2023/08/01 10:29:59;;;;;;;3.28;2.58;;;30.60;99.90;;;;;;5103574;28;20394;-76
2023/08/01 10:32:33;;;;;;;10.88;4.03;;;30.70;99.90;;;;;;5103356;28;20036;-76
2023/08/01 10:35:00;;;;;;;4.10;2.92;;;30.70;99.90;;;;;;5102865;28;20043;-77
2023/08/01 10:37:39;;;;;;;6.55;4.07;;;30.80;99.90;;;;;;5104734;28;20039;-76
2023/08/01 10:40:09;;;;;;;4.85;2.90;;;30.80;99.90;;;;;;5101871;28;20071;-76
2023/08/01 10:42:40;;;;;;;4.43;3.70;;;30.90;99.90;;;;;;5110300;28;20064;-76
2023/08/01 10:45:22;;;;;;;14.48;4.07;;;30.80;99.90;;;;;;5104255;28;20036;-76
2023/08/01 10:47:50;;;;;;;9.32;6.15;;;30.90;99.90;;;;;;5104459;28;20423;-76
2023/08/01 10:50:18;;;;;;;4.55;3.17;;;30.90;99.90;;;;;;5084548;28;20044;-78
2023/08/01 10:52:46;;;;;;;6.13;3.42;;;30.70;99.90;;;;;;5104280;28;20042;-76
2023/08/01 10:55:14;;;;;;;7.25;4.28;;;30.70;99.90;;;;;;5104431;28;20066;-74
2023/08/01 10:57:50;;;;;;;13.15;5.10;;;30.80;99.90;;;;;;5106702;28;20093;-77
2023/08/01 11:00:20;;;;;;;6.45;3.90;;;31.10;99.90;;;;;;5105043;28;20138;-77
2023/08/01 11:02:51;;;;;;;4.95;3.40;;;31.40;99.90;;;;;;5086214;28;20096;-76
2023/08/01 11:05:19;;;;;;;11.32;5.40;;;31.70;99.90;;;;;;5104596;28;20048;-77
2023/08/01 11:07:56;;;;;;;8.57;6.22;;;31.90;99.90;;;;;;5103331;28;20044;-78
2023/08/01 11:10:26;;;;;;;10.43;4.15;;;32.10;99.90;;;;;;5108085;28;20031;-76
2023/08/01 11:12:54;;;;;;;6.97;4.13;;;31.80;99.90;;;;;;5101630;28;20114;-77
2023/08/01 11:15:23;;;;;;;10.43;4.82;;;31.60;99.90;;;;;;5105751;28;20045;-77
2023/08/01 11:17:53;;;;;;;7.60;5.72;;;31.70;99.90;;;;;;5116988;28;20051;-77
2023/08/01 11:20:24;;;;;;;3.70;2.83;;;31.90;99.90;;;;;;5105658;28;20040;-76
2023/08/01 11:22:54;;;;;;;6.22;2.88;;;31.90;99.90;;;;;;5102774;28;20104;-76
2023/08/01 11:25:33;;;;;;;6.55;3.30;;;31.80;99.90;;;;;;5103218;28;20032;-77
2023/08/01 11:28:07;;;;;;;4.03;2.72;;;31.80;99.90;;;;;;5100887;28;20032;-78
2023/08/01 11:30:36;;;;;;;6.85;2.92;;;31.70;99.90;;;;;;5104676;28;20047;-78
2023/08/01 11:33:13;;;;;;;8.95;4.78;;;31.70;99.90;;;;;;5102841;28;20044;-77
2023/08/01 11:35:41;;;;;;;8.95;5.82;;;31.60;99.90;;;;;;5083005;28;20063;-78
2023/08/01 11:38:09;;;;;;;62.33;15.20;;;31.70;99.90;;;;;;5102225;28;20028;-78
2023/08/01 11:40:36;;;;;;;6.60;3.88;;;31.70;99.90;;;;;;5101215;28;20048;-75
2023/08/01 11:43:04;;;;;;;6.70;3.95;;;31.60;99.90;;;;;;5100938;28;20108;-77
2023/08/01 11:45:31;;;;;;;10.95;4.65;;;31.50;99.90;;;;;;5101310;28;20052;-77
2023/08/01 11:48:00;;;;;;;7.40;3.65;;;31.70;99.90;;;;;;5099070;28;20055;-75
2023/08/01 11:50:27;;;;;;;16.17;5.25;;;31.80;99.90;;;;;;5101004;28;20036;-76
2023/08/01 11:52:55;;;;;;;20.90;6.78;;;31.80;99.90;;;;;;5101648;28;20043;-76
2023/08/01 11:55:26;;;;;;;7.32;5.07;;;31.90;99.90;;;;;;5102629;28;20044;-77
2023/08/01 11:57:55;;;;;;;4.45;3.53;;;31.90;99.90;;;;;;5094638;28;20062;-75
2023/08/01 12:00:23;;;;;;;19.50;6.95;;;31.90;99.90;;;;;;5080711;28;20110;-76
2023/08/01 12:02:51;;;;;;;5.55;3.38;;;32.00;99.90;;;;;;5079246;28;20056;-75
2023/08/01 12:05:27;;;;;;;4.88;4.03;;;32.10;99.90;;;;;;5079256;28;20044;-77
2023/08/01 12:07:54;;;;;;;6.57;4.20;;;32.10;99.90;;;;;;5079872;28;20055;-78
2023/08/01 12:10:21;;;;;;;7.45;6.05;;;32.00;99.90;;;;;;5089973;28;20047;-77
2023/08/01 12:12:50;;;;;;;7.78;4.95;;;32.10;99.90;;;;;;5085918;28;20044;-76
2023/08/01 12:15:17;;;;;;;6.25;5.20;;;32.20;99.90;;;;;;5085161;28;20036;-78
2023/08/01 12:17:44;;;;;;;5.35;4.82;;;32.50;99.90;;;;;;5083159;28;20491;-77
2023/08/01 12:20:13;;;;;;;7.75;6.15;;;32.70;99.90;;;;;;5068358;28;20044;-76
2023/08/01 12:22:42;;;;;;;5.88;3.92;;;32.90;99.90;;;;;;5065550;28;20051;-77
2023/08/01 12:25:10;;;;;;;8.80;5.60;;;32.90;99.90;;;;;;5066045;28;20517;-77
2023/08/01 12:27:37;;;;;;;8.38;4.40;;;33.10;99.90;;;;;;5082979;28;20124;-77
2023/08/01 12:30:05;;;;;;;5.68;4.20;;;33.10;99.90;;;;;;5080604;28;20047;-76
2023/08/01 12:32:36;;;;;;;5.32;3.17;;;33.20;99.90;;;;;;5080594;28;20072;-76
2023/08/01 12:35:03;;;;;;;5.55;2.92;;;33.20;99.90;;;;;;5080948;28;20070;-75
2023/08/01 12:37:30;;;;;;;5.35;3.30;;;33.20;99.90;;;;;;5072004;28;20040;-75
2023/08/01 12:39:59;;;;;;;5.85;3.13;;;33.20;99.90;;;;;;5085156;28;20043;-77
2023/08/01 12:42:27;;;;;;;6.57;2.80;;;33.20;99.90;;;;;;5088612;28;20044;-76
2023/08/01 12:44:54;;;;;;;4.05;3.15;;;32.90;99.90;;;;;;5082947;28;20054;-78
2023/08/01 12:47:21;;;;;;;5.43;3.20;;;33.00;99.90;;;;;;5083082;28;20109;-77
2023/08/01 12:49:49;;;;;;;3.50;3.00;;;33.20;99.90;;;;;;5080543;28;20502;-76
2023/08/01 12:52:24;;;;;;;5.95;3.92;;;33.40;99.90;;;;;;5079065;28;20036;-77
2023/08/01 12:54:51;;;;;;;5.28;3.35;;;33.40;99.90;;;;;;5079472;28;20047;-79
2023/08/01 12:57:20;;;;;;;6.60;3.17;;;33.50;99.90;;;;;;5083301;28;20036;-77
2023/08/01 12:59:49;;;;;;;4.93;3.33;;;33.40;99.90;;;;;;5102583;28;20479;-75
2023/08/01 13:02:16;;;;;;;7.13;3.40;;;33.40;99.90;;;;;;5101587;28;20147;-77
2023/08/01 13:04:43;;;;;;;5.65;3.55;;;33.40;99.90;;;;;;5097891;28;20088;-79
2023/08/01 13:07:11;;;;;;;4.25;3.35;;;33.50;99.90;;;;;;5102737;28;20040;-77
2023/08/01 13:09:38;;;;;;;4.35;2.90;;;33.60;99.90;;;;;;5102795;28;20035;-77
2023/08/01 13:12:06;;;;;;;3.40;2.90;;;33.70;99.90;;;;;;5101362;28;20043;-76
2023/08/01 13:14:35;;;;;;;4.68;3.45;;;33.90;99.90;;;;;;5100276;28;20059;-77
2023/08/01 13:17:03;;;;;;;6.15;5.55;;;34.10;99.90;;;;;;5101876;28;20572;-79
2023/08/01 13:19:31;;;;;;;4.63;3.58;;;34.20;99.90;;;;;;5082970;28;20159;-78
2023/08/01 13:21:58;;;;;;;7.65;5.32;;;34.30;99.90;;;;;;5109297;28;20410;-75
2023/08/01 13:24:26;;;;;;;9.77;8.05;;;34.40;99.90;;;;;;5102446;28;20052;-76
2023/08/01 13:26:53;;;;;;;5.32;4.53;;;34.40;99.90;;;;;;5102713;28;20483;-78
2023/08/01 13:29:21;;;;;;;6.05;5.07;;;33.90;99.90;;;;;;5105946;28;20067;-76
2023/08/01 13:31:51;;;;;;;5.10;3.80;;;34.20;99.90;;;;;;5100387;28;20067;-75
2023/08/01 13:34:18;;;;;;;5.45;4.07;;;34.40;99.90;;;;;;5113056;28;20156;-76
2023/08/01 13:36:46;;;;;;;6.05;4.20;;;34.30;99.90;;;;;;5112249;28;20052;-77
2023/08/01 13:39:13;;;;;;;5.55;3.15;;;34.30;99.90;;;;;;5108613;28;20039;-78
2023/08/01 13:41:40;;;;;;;5.85;3.78;;;34.30;99.90;;;;;;5114108;28;20105;-76
2023/08/01 13:44:08;;;;;;;13.18;3.25;;;34.30;99.90;;;;;;5103026;28;20125;-76
2023/08/01 13:46:35;;;;;;;7.88;3.75;;;33.80;99.90;;;;;;5097525;28;20118;-77
2023/08/01 13:49:04;;;;;;;5.47;4.93;;;33.70;99.90;;;;;;5101982;28;20043;-76
2023/08/01 13:51:33;;;;;;;6.90;5.78;;;33.30;99.90;;;;;;5103186;28;20035;-77
2023/08/01 13:54:00;;;;;;;5.93;5.20;;;33.10;99.90;;;;;;5102478;28;20040;-76
2023/08/01 13:56:28;;;;;;;6.47;5.38;;;33.00;99.90;;;;;;5101770;28;20170;-77
2023/08/01 13:58:55;;;;;;;5.75;4.10;;;32.80;99.90;;;;;;5107976;28;20048;-76
2023/08/01 14:01:29;;;;;;;5.90;4.55;;;32.70;99.90;;;;;;5114145;28;20040;-77
2023/08/01 14:03:56;;;;;;;6.70;4.03;;;32.70;99.90;;;;;;5095147;28;20075;-76
2023/08/01 14:06:25;;;;;;;6.80;4.65;;;32.70;99.90;;;;;;5103861;28;20035;-75
2023/08/01 14:08:53;;;;;;;3.80;3.17;;;32.60;99.90;;;;;;5100735;28;20040;-76
2023/08/01 14:11:20;;;;;;;6.28;3.90;;;32.40;99.90;;;;;;5098579;28;20076;-75
2023/08/01 14:13:47;;;;;;;5.68;4.68;;;32.30;99.90;;;;;;5098060;28;20043;-78
2023/08/01 14:16:16;;;;;;;4.97;3.70;;;32.20;99.90;;;;;;5102614;28;20530;-79
2023/08/01 14:18:44;;;;;;;4.72;3.65;;;32.20;99.90;;;;;;5113151;28;20069;-75
2023/08/01 14:21:11;;;;;;;6.38;5.05;;;32.10;99.90;;;;;;5118134;28;20048;-77
2023/08/01 14:23:41;;;;;;;7.25;5.20;;;31.90;99.90;;;;;;5110086;28;20043;-78
2023/08/01 14:26:09;;;;;;;6.50;5.10;;;31.90;99.90;;;;;;5105940;28;20081;-75
2023/08/01 14:28:36;;;;;;;6.20;3.13;;;31.80;99.90;;;;;;5103564;28;20044;-78
2023/08/01 14:31:04;;;;;;;3.63;3.10;;;31.90;99.90;;;;;;5103286;28;20040;-78
2023/08/01 14:33:32;;;;;;;5.95;3.20;;;31.90;99.90;;;;;;5102637;28;20144;-77
2023/08/01 14:35:59;;;;;;;6.00;4.60;;;31.90;99.90;;;;;;5105071;28;20043;-77
2023/08/01 14:38:27;;;;;;;6.45;3.25;;;31.80;99.90;;;;;;5102108;28;20040;-79
2023/08/01 14:40:56;;;;;;;6.05;4.05;;;31.90;99.90;;;;;;5084297;28;20039;-76
2023/08/01 14:43:23;;;;;;;7.28;3.70;;;31.90;99.90;;;;;;5103267;28;20032;-76
2023/08/01 14:45:50;;;;;;;5.90;3.47;;;32.10;99.90;;;;;;5102159;28;20048;-74
2023/08/01 14:48:18;;;;;;;5.47;3.25;;;32.10;99.90;;;;;;5104180;28;20118;-76
2023/08/01 14:50:46;;;;;;;5.30;3.33;;;32.20;99.90;;;;;;5107032;28;20032;-74
2023/08/01 14:53:13;;;;;;;6.05;3.30;;;32.30;99.90;;;;;;5082203;28;20040;-76
2023/08/01 14:55:40;;;;;;;5.90;4.13;;;32.30;99.90;;;;;;5104828;28;20035;-76
2023/08/01 14:58:09;;;;;;;8.05;4.40;;;32.30;99.90;;;;;;5102300;28;20051;-78
2023/08/01 15:00:37;;;;;;;6.22;3.97;;;32.30;99.90;;;;;;5101817;28;20120;-78
2023/08/01 15:03:04;;;;;;;6.82;4.10;;;32.30;99.90;;;;;;5101092;28;20039;-78
2023/08/01 15:05:33;;;;;;;5.53;4.25;;;32.10;99.90;;;;;;5101461;28;20052;-78
2023/08/01 15:08:05;;;;;;;5.50;3.90;;;32.10;99.90;;;;;;5080623;28;20046;-76
2023/08/01 15:10:32;;;;;;;5.43;3.60;;;32.00;99.90;;;;;;5100334;28;20048;-76
2023/08/01 15:13:00;;;;;;;5.47;3.83;;;31.90;99.90;;;;;;5083181;28;20044;-76
2023/08/01 15:15:28;;;;;;;5.68;4.00;;;31.70;99.90;;;;;;5104162;28;20486;-77
2023/08/01 15:17:56;;;;;;;6.60;4.57;;;31.70;99.90;;;;;;5109853;28;20176;-78
2023/08/01 15:20:24;;;;;;;6.18;4.97;;;31.60;99.90;;;;;;5114535;28;20096;-77
2023/08/01 15:22:51;;;;;;;9.88;5.28;;;31.50;99.90;;;;;;5087601;28;20043;-78
2023/08/01 15:25:19;;;;;;;9.43;6.22;;;31.50;99.90;;;;;;5108008;28;20047;-76
2023/08/01 15:27:46;;;;;;;11.48;5.05;;;31.50;99.90;;;;;;5102758;28;20036;-80
2023/08/01 15:30:14;;;;;;;7.53;5.95;;;31.50;99.90;;;;;;5102169;28;20094;-78
2023/08/01 15:32:43;;;;;;;6.47;4.00;;;31.50;99.90;;;;;;5100588;28;20051;-78
2023/08/01 15:35:10;;;;;;;6.80;4.60;;;31.60;99.90;;;;;;5103455;28;20036;-78
2023/08/01 15:37:39;;;;;;;5.75;4.50;;;31.60;99.90;;;;;;5083041;28;20109;-76
2023/08/01 15:40:08;;;;;;;4.93;3.55;;;31.60;99.90;;;;;;5103852;28;20040;-76
2023/08/01 15:42:35;;;;;;;5.35;3.83;;;31.50;99.90;;;;;;5082514;28;20052;-75
2023/08/01 15:45:02;;;;;;;6.95;4.50;;;31.50;99.90;;;;;;5100585;28;20059;-76
2023/08/01 15:47:30;;;;;;;6.18;4.03;;;31.50;99.90;;;;;;5100986;28;20094;-75
2023/08/01 15:50:01;;;;;;;4.95;3.78;;;31.50;99.90;;;;;;5082106;28;20469;-75
2023/08/01 15:52:28;;;;;;;4.78;3.70;;;31.40;99.90;;;;;;5102693;28;20047;-75
2023/08/01 15:54:56;;;;;;;6.78;5.03;;;31.30;99.90;;;;;;5104645;28;20138;-76
2023/08/01 15:57:23;;;;;;;7.15;5.13;;;31.20;99.90;;;;;;5105655;28;20081;-77
2023/08/01 15:59:50;;;;;;;5.95;4.47;;;31.20;99.90;;;;;;5082670;28;20372;-76
2023/08/01 16:02:18;;;;;;;11.20;7.38;;;31.20;99.90;;;;;;5081129;28;20090;-76
2023/08/01 16:04:45;;;;;;;6.97;5.15;;;31.20;99.90;;;;;;5079301;28;20240;-76
2023/08/01 16:07:14;;;;;;;10.77;8.70;;;31.20;99.90;;;;;;5079556;28;20032;-75
2023/08/01 16:09:41;;;;;;;8.18;5.30;;;31.30;99.90;;;;;;5080050;28;20040;-76
2023/08/01 16:12:10;;;;;;;6.88;5.55;;;31.40;99.90;;;;;;5078185;28;20098;-76
2023/08/01 16:14:37;;;;;;;8.35;4.55;;;31.50;99.90;;;;;;5076806;28;20634;-76
2023/08/01 16:17:05;;;;;;;7.82;5.35;;;31.50;99.90;;;;;;5062128;28;20048;-76
2023/08/01 16:19:32;;;;;;;8.25;6.53;;;31.40;99.90;;;;;;5079214;28;20056;-78
2023/08/01 16:22:00;;;;;;;12.30;11.00;;;31.40;99.90;;;;;;5077749;28;20458;-77
2023/08/01 16:24:28;;;;;;;8.40;5.45;;;31.30;99.90;;;;;;5078395;28;20036;-76
2023/08/01 16:26:56;;;;;;;12.65;9.80;;;31.20;99.90;;;;;;5077916;28;20730;-77
2023/08/01 16:29:23;;;;;;;7.97;5.68;;;31.10;99.90;;;;;;5079237;28;20048;-77
2023/08/01 16:31:50;;;;;;;9.93;8.93;;;30.80;99.90;;;;;;5076221;28;20047;-76
2023/08/01 16:34:18;;;;;;;9.18;6.53;;;30.80;99.90;;;;;;5079577;28;20040;-76
2023/08/01 16:36:45;;;;;;;10.30;7.55;;;30.60;99.90;;;;;;5081302;28;20040;-76
2023/08/01 16:39:12;;;;;;;8.57;6.28;;;30.60;99.90;;;;;;5090414;28;20060;-77
2023/08/01 16:41:43;;;;;;;5.78;4.10;;;30.50;99.90;;;;;;5093547;28;20074;-77
2023/08/01 16:44:10;;;;;;;7.95;5.00;;;30.40;99.90;;;;;;5082702;28;20040;-75
2023/08/01 16:46:38;;;;;;;6.40;4.30;;;30.30;99.90;;;;;;5080593;28;20063;-77
2023/08/01 16:49:05;;;;;;;5.22;4.03;;;30.10;99.90;;;;;;5080461;28;20032;-77
2023/08/01 16:51:32;;;;;;;7.43;5.28;;;30.00;99.90;;;;;;5081816;28;20102;-75
2023/08/01 16:54:00;;;;;;;9.15;4.90;;;29.90;99.90;;;;;;5080590;28;20456;-76
2023/08/01 16:56:28;;;;;;;9.55;6.18;;;29.90;99.90;;;;;;5078990;28;20151;-77
2023/08/01 16:58:56;;;;;;;8.65;5.00;;;30.10;99.90;;;;;;5095593;28;20128;-76
2023/08/01 17:01:24;;;;;;;9.18;5.32;;;30.00;99.90;;;;;;5101709;28;20046;-74
2023/08/01 17:03:53;;;;;;;9.43;6.00;;;29.90;99.90;;;;;;5101097;28;20118;-75
2023/08/01 17:06:21;;;;;;;11.90;6.20;;;29.80;99.90;;;;;;5100886;28;20058;-77
2023/08/01 17:08:49;;;;;;;9.15;5.75;;;29.70;99.90;;;;;;5101112;28;20062;-76
2023/08/01 17:11:16;;;;;;;6.97;5.32;;;29.50;99.90;;;;;;5100420;28;20047;-75
2023/08/01 17:13:44;;;;;;;10.02;6.30;;;29.40;99.90;;;;;;5082443;28;20449;-76
2023/08/01 17:16:13;;;;;;;11.80;5.47;;;29.30;99.90;;;;;;5100641;28;20117;-77
2023/08/01 17:18:41;;;;;;;7.28;5.10;;;29.00;99.90;;;;;;5100124;28;20028;-76
2023/08/01 17:21:09;;;;;;;13.07;8.07;;;28.80;99.90;;;;;;5099216;28;20108;-75
2023/08/01 17:23:37;;;;;;;9.48;5.32;;;28.80;99.90;;;;;;5101878;28;20047;-76
2023/08/01 17:26:04;;;;;;;8.82;6.15;;;28.50;99.90;;;;;;5100270;28;20060;-74
2023/08/01 17:28:32;;;;;;;12.70;8.82;;;28.40;99.90;;;;;;5097996;28;20490;-79
2023/08/01 17:31:04;;;;;;;9.45;6.85;;;28.40;99.90;;;;;;5100326;28;20452;-74
2023/08/01 17:33:33;;;;;;;8.63;5.20;;;28.40;99.90;;;;;;5099994;28;20043;-75
2023/08/01 17:36:00;;;;;;;12.35;8.13;;;28.30;99.90;;;;;;5104567;28;20113;-73
2023/08/01 17:38:28;;;;;;;11.93;7.75;;;28.20;99.90;;;;;;5103027;28;20067;-76
2023/08/01 17:40:55;;;;;;;13.43;8.40;;;28.00;99.90;;;;;;5102306;28;20055;-79
2023/08/01 17:43:22;;;;;;;10.75;4.72;;;27.90;99.90;;;;;;5103673;28;20039;-78
2023/08/01 17:45:50;;;;;;;6.90;4.85;;;27.50;99.90;;;;;;5101107;28;20043;-76
2023/08/01 17:48:17;;;;;;;9.93;6.95;;;27.30;1.00;;;;;;5098344;28;20040;-78
2023/08/01 17:50:46;;;;;;;11.38;7.05;;;27.20;1.00;;;;;;5102750;28;20048;-76
2023/08/01 17:53:13;;;;;;;10.30;6.28;;;27.20;1.00;;;;;;5082432;28;20047;-78
2023/08/01 17:55:41;;;;;;;9.48;6.43;;;27.30;1.00;;;;;;5106868;28;20437;-79
2023/08/01 17:58:08;;;;;;;9.13;5.55;;;27.20;1.00;;;;;;5102339;28;20047;-76
2023/08/01 18:00:35;;;;;;;12.77;7.97;;;27.20;1.00;;;;;;5104247;28;20093;-75
2023/08/01 18:03:03;;;;;;;9.73;6.05;;;27.10;1.00;;;;;;5103474;28;20043;-74
2023/08/01 18:05:30;;;;;;;11.98;6.78;;;26.70;99.90;;;;;;5103455;28;20541;-75
2023/08/01 18:07:59;;;;;;;13.80;7.22;;;26.50;99.90;;;;;;5111726;28;20047;-76
2023/08/01 18:10:30;;;;;;;16.15;10.18;;;26.50;99.90;;;;;;5114311;28;20077;-77
2023/08/01 18:12:58;;;;;;;14.98;8.23;;;26.40;99.90;;;;;;5120917;28;20040;-76
2023/08/01 18:15:25;;;;;;;11.68;7.13;;;26.50;99.90;;;;;;5115391;28;20045;-75
2023/08/01 18:17:52;;;;;;;10.57;6.95;;;26.50;99.90;;;;;;5122345;28;20044;-74
2023/08/01 18:20:20;;;;;;;11.95;6.80;;;26.40;99.90;;;;;;5123007;28;20031;-79
2023/08/01 18:22:47;;;;;;;13.55;7.55;;;26.30;99.90;;;;;;5123801;28;20054;-76
2023/08/01 18:25:16;;;;;;;12.80;6.18;;;26.30;1.00;;;;;;5121067;28;20039;-76
2023/08/01 18:27:43;;;;;;;10.95;6.82;;;26.20;1.00;;;;;;5118378;28;20043;-79
2023/08/01 18:30:11;;;;;;;10.52;7.70;;;26.20;1.00;;;;;;5122402;28;20101;-76
2023/08/01 18:32:40;;;;;;;11.50;7.20;;;26.20;1.00;;;;;;5117805;28;20077;-77
2023/08/01 18:35:08;;;;;;;11.90;7.70;;;26.10;1.00;;;;;;5093069;28;20040;-76
2023/08/01 18:37:35;;;;;;;9.32;7.10;;;26.00;1.00;;;;;;5111738;28;20054;-75
2023/08/01 18:40:03;;;;;;;9.73;7.38;;;25.90;1.00;;;;;;5114460;28;20036;-77
2023/08/01 18:42:32;;;;;;;14.45;7.78;;;25.80;1.00;;;;;;5113472;28;20165;-75
2023/08/01 18:44:59;;;;;;;11.13;7.63;;;25.80;1.00;;;;;;5111144;28;20082;-76
2023/08/01 18:47:26;;;;;;;10.70;7.00;;;25.70;1.00;;;;;;5107034;28;20040;-77
2023/08/01 18:49:54;;;;;;;11.68;7.90;;;25.70;1.00;;;;;;5106561;28;20071;-76
2023/08/01 18:52:22;;;;;;;13.98;9.13;;;25.60;1.00;;;;;;5105331;28;20129;-77
2023/08/01 18:54:51;;;;;;;18.05;8.60;;;25.50;95.60;;;;;;5102602;28;20345;-74
2023/08/01 18:57:19;;;;;;;17.80;9.35;;;25.40;99.90;;;;;;5112500;28;20405;-79
2023/08/01 18:59:47;;;;;;;14.10;8.98;;;25.30;99.90;;;;;;5116532;28;20067;-75
2023/08/01 19:02:15;;;;;;;14.90;10.27;;;25.10;1.00;;;;;;5116979;28;20044;-76
2023/08/01 19:04:43;;;;;;;16.33;10.63;;;25.10;1.00;;;;;;5106417;28;20477;-76
2023/08/01 19:07:11;;;;;;;16.63;11.20;;;25.10;25.50;;;;;;5109105;28;20052;-77
2023/08/01 19:09:38;;;;;;;13.25;9.27;;;25.10;26.40;;;;;;5116121;28;20044;-78
2023/08/01 19:12:06;;;;;;;13.73;9.27;;;25.00;11.50;;;;;;5115061;28;20048;-76
2023/08/01 19:14:34;;;;;;;13.10;9.32;;;24.90;99.90;;;;;;5102446;28;20040;-77
2023/08/01 19:17:13;;;;;;;14.68;9.88;;;24.90;99.90;;;;;;5099522;28;20044;-76
2023/08/01 19:19:40;;;;;;;18.40;11.43;;;24.80;99.90;;;;;;5110865;28;20043;-76
2023/08/01 19:22:08;;;;;;;14.48;9.45;;;24.70;99.90;;;;;;5110700;28;20040;-75
2023/08/01 19:24:36;;;;;;;16.30;10.80;;;24.50;99.90;;;;;;5126178;28;20034;-77
2023/08/01 19:27:05;;;;;;;17.23;11.68;;;24.40;99.90;;;;;;5120758;28;20046;-78
2023/08/01 19:29:33;;;;;;;16.65;11.35;;;24.40;99.90;;;;;;5103569;28;20044;-76
2023/08/01 19:32:09;;;;;;;15.27;10.60;;;24.30;99.90;;;;;;5116504;28;20072;-77
2023/08/01 19:34:36;;;;;;;18.00;10.15;;;24.30;99.90;;;;;;5115824;28;20070;-74
2023/08/01 19:37:04;;;;;;;16.02;10.43;;;24.20;99.90;;;;;;5088615;28;20056;-74
2023/08/01 19:39:31;;;;;;;16.98;10.10;;;24.10;99.90;;;;;;5111283;28;20040;-76
2023/08/01 19:41:59;;;;;;;24.48;17.50;;;24.00;99.90;;;;;;5088106;28;20036;-76
2023/08/01 19:44:28;;;;;;;17.13;10.88;;;24.00;99.90;;;;;;5101728;28;20044;-75
2023/08/01 19:46:56;;;;;;;16.13;10.32;;;23.80;99.90;;;;;;5104513;28;20055;-78
2023/08/01 19:49:26;;;;;;;13.93;10.65;;;23.80;99.90;;;;;;5103661;28;20044;-75
2023/08/01 19:51:54;;;;;;;13.40;9.52;;;23.70;99.90;;;;;;5104771;28;20051;-79
2023/08/01 19:54:21;;;;;;;25.17;19.50;;;23.70;99.90;;;;;;5101616;28;20040;-76
2023/08/01 19:56:49;;;;;;;21.83;13.88;;;23.60;99.90;;;;;;5103974;28;20096;-77
2023/08/01 19:59:17;;;;;;;14.85;10.98;;;23.50;99.90;;;;;;5086955;28;20051;-75
2023/08/01 20:01:44;;;;;;;25.15;18.80;;;23.50;99.90;;;;;;5103011;28;20475;-75
2023/08/01 20:04:12;;;;;;;14.23;10.98;;;23.40;99.90;;;;;;5102874;28;20584;-77
2023/08/01 20:06:41;;;;;;;13.98;8.98;;;23.30;99.90;;;;;;5107998;28;20069;-74
2023/08/01 20:09:08;;;;;;;16.10;10.95;;;23.20;99.90;;;;;;5084855;28;20148;-76
2023/08/01 20:11:36;;;;;;;12.15;8.70;;;23.10;99.90;;;;;;5101298;28;20495;-79
2023/08/01 20:14:03;;;;;;;14.50;8.77;;;23.00;99.90;;;;;;5098926;28;20196;-78
2023/08/01 20:16:30;;;;;;;14.48;9.38;;;23.00;99.90;;;;;;5100752;28;20047;-78